<?xml version="1.0" encoding="UTF-8" standalone="no" ?>
<gpx xmlns="http://www.topografix.com/GPX/1/1" xmlns:xsi="http://www.w3.org/2001/XMLSchema-instance" xsi:schemaLocation="http://www.topografix.com/GPX/1/1 http://www.topografix.com/GPX/1/1/gpx.xsd" version="1.1" creator="VisuGPX - https://www.visugpx.com">
  <metadata>
    <name>Taillée du Pas de la Vache Luzac</name>
  </metadata>
  <wpt lat="45.80213" lon="-1.04087">
    <ele>14</ele>
    <name><![CDATA[Parking Rue Garesche]]></name>
  </wpt>
  <wpt lat="45.80285" lon="-1.03765">
    <ele>14</ele>
    <name><![CDATA[À droite Rue du Haras]]></name>
  </wpt>
  <wpt lat="45.8025" lon="-1.03715">
    <ele>14</ele>
    <name><![CDATA[a droite]]></name>
  </wpt>
  <wpt lat="45.801" lon="-1.03396">
    <ele>12</ele>
    <name><![CDATA[À gauche Rue de la Tournelle]]></name>
  </wpt>
  <wpt lat="45.80352" lon="-1.03128">
    <ele>5</ele>
    <name><![CDATA[Bois, tout droit]]></name>
  </wpt>
  <wpt lat="45.82462" lon="-1.0114">
    <ele>3</ele>
    <name><![CDATA[Bifurcation à gauche ]]></name>
  </wpt>
  <wpt lat="45.82485" lon="-1.01143">
    <ele>3</ele>
    <name><![CDATA[a gauche ]]></name>
  </wpt>
  <wpt lat="45.82854" lon="-1.01672">
    <ele>3</ele>
    <name><![CDATA[Croisement en T, à gauche ]]></name>
  </wpt>
  <wpt lat="45.80917" lon="-1.03301">
    <ele>3</ele>
    <name><![CDATA[Bois, tout droit]]></name>
  </wpt>
  <wpt lat="45.80863" lon="-1.03499">
    <ele>4</ele>
    <name><![CDATA[Tout droit]]></name>
  </wpt>
  <wpt lat="45.80502" lon="-1.03999">
    <ele>14</ele>
    <name><![CDATA[Petite montée, à gauche]]></name>
  </wpt>
  <wpt lat="45.80481" lon="-1.0398">
    <ele>15</ele>
    <name><![CDATA[gauche puis tout de suite droite rue du haras]]></name>
  </wpt>
  <wpt lat="45.80375" lon="-1.04031">
    <ele>15</ele>
    <name><![CDATA[À gauche rue de la rigolleterie]]></name>
  </wpt>
  <wpt lat="45.80215" lon="-1.04089">
    <ele>14</ele>
    <name><![CDATA[Parking Rue Garesche]]></name>
  </wpt>
  <trk>
    <name><![CDATA[Taillée du Pas de la Vache]]></name>
    <trkseg>
      <trkpt lat="45.80213" lon="-1.04087">
        <ele>14</ele>
        <time>2021-08-18T15:31:14+02:00</time>
      </trkpt>
      <trkpt lat="45.802" lon="-1.04058">
        <ele>14</ele>
        <time>2021-10-15T08:06:47+02:00</time>
      </trkpt>
      <trkpt lat="45.80218" lon="-1.03989">
        <ele>15</ele>
        <time>2021-10-15T08:06:52+02:00</time>
      </trkpt>
      <trkpt lat="45.80225" lon="-1.03936">
        <ele>15</ele>
        <time>2021-10-15T08:06:57+02:00</time>
      </trkpt>
      <trkpt lat="45.80234" lon="-1.03854">
        <ele>15</ele>
        <time>2021-08-18T15:31:14+02:00</time>
      </trkpt>
      <trkpt lat="45.80251" lon="-1.03834">
        <ele>15</ele>
        <time>2021-08-18T15:31:30+02:00</time>
      </trkpt>
      <trkpt lat="45.80275" lon="-1.0378">
        <ele>14</ele>
        <time>2021-08-18T15:31:45+02:00</time>
      </trkpt>
      <trkpt lat="45.80285" lon="-1.03765">
        <ele>14</ele>
        <time>2021-08-18T15:32:02+02:00</time>
      </trkpt>
      <trkpt lat="45.80263" lon="-1.03742">
        <ele>13</ele>
        <time>2021-08-18T15:32:19+02:00</time>
      </trkpt>
      <trkpt lat="45.8025" lon="-1.03715">
        <ele>14</ele>
        <time>2021-08-18T15:32:54+02:00</time>
      </trkpt>
      <trkpt lat="45.80241" lon="-1.03686">
        <ele>14</ele>
        <time>2021-08-18T15:33:08+02:00</time>
      </trkpt>
      <trkpt lat="45.80229" lon="-1.03656">
        <ele>13</ele>
        <time>2021-08-18T15:33:29+02:00</time>
      </trkpt>
      <trkpt lat="45.80218" lon="-1.03628">
        <ele>13</ele>
        <time>2021-08-18T15:33:45+02:00</time>
      </trkpt>
      <trkpt lat="45.80208" lon="-1.03598">
        <ele>13</ele>
        <time>2021-08-18T15:34:01+02:00</time>
      </trkpt>
      <trkpt lat="45.80197" lon="-1.03569">
        <ele>13</ele>
        <time>2021-08-18T15:34:18+02:00</time>
      </trkpt>
      <trkpt lat="45.80188" lon="-1.03538">
        <ele>13</ele>
        <time>2021-08-18T15:34:34+02:00</time>
      </trkpt>
      <trkpt lat="45.80182" lon="-1.03507">
        <ele>12</ele>
        <time>2021-08-18T15:34:51+02:00</time>
      </trkpt>
      <trkpt lat="45.80173" lon="-1.03476">
        <ele>12</ele>
        <time>2021-08-18T15:35:07+02:00</time>
      </trkpt>
      <trkpt lat="45.80153" lon="-1.0346">
        <ele>12</ele>
        <time>2021-08-18T15:35:23+02:00</time>
      </trkpt>
      <trkpt lat="45.80133" lon="-1.03443">
        <ele>12</ele>
        <time>2021-08-18T15:35:41+02:00</time>
      </trkpt>
      <trkpt lat="45.80114" lon="-1.03422">
        <ele>12</ele>
        <time>2021-08-18T15:35:57+02:00</time>
      </trkpt>
      <trkpt lat="45.801" lon="-1.03396">
        <ele>12</ele>
        <time>2021-08-18T15:36:18+02:00</time>
      </trkpt>
      <trkpt lat="45.80116" lon="-1.03371">
        <ele>12</ele>
        <time>2021-08-18T15:36:34+02:00</time>
      </trkpt>
      <trkpt lat="45.80132" lon="-1.03348">
        <ele>12</ele>
        <time>2021-08-18T15:36:56+02:00</time>
      </trkpt>
      <trkpt lat="45.80149" lon="-1.03325">
        <ele>13</ele>
        <time>2021-08-18T15:37:16+02:00</time>
      </trkpt>
      <trkpt lat="45.80166" lon="-1.03302">
        <ele>13</ele>
        <time>2021-08-18T15:37:32+02:00</time>
      </trkpt>
      <trkpt lat="45.80179" lon="-1.03274">
        <ele>13</ele>
        <time>2021-08-18T15:37:47+02:00</time>
      </trkpt>
      <trkpt lat="45.80195" lon="-1.03251">
        <ele>13</ele>
        <time>2021-08-18T15:38:06+02:00</time>
      </trkpt>
      <trkpt lat="45.8021" lon="-1.03227">
        <ele>12</ele>
        <time>2021-08-18T15:38:23+02:00</time>
      </trkpt>
      <trkpt lat="45.80229" lon="-1.03208">
        <ele>11</ele>
        <time>2021-08-18T15:38:38+02:00</time>
      </trkpt>
      <trkpt lat="45.80252" lon="-1.03206">
        <ele>10</ele>
        <time>2021-08-18T15:38:56+02:00</time>
      </trkpt>
      <trkpt lat="45.80275" lon="-1.032">
        <ele>9</ele>
        <time>2021-08-18T15:39:30+02:00</time>
      </trkpt>
      <trkpt lat="45.80293" lon="-1.03181">
        <ele>7</ele>
        <time>2021-08-18T15:39:47+02:00</time>
      </trkpt>
      <trkpt lat="45.80313" lon="-1.03164">
        <ele>6</ele>
        <time>2021-08-18T15:40:03+02:00</time>
      </trkpt>
      <trkpt lat="45.80333" lon="-1.03148">
        <ele>6</ele>
        <time>2021-08-18T15:40:17+02:00</time>
      </trkpt>
      <trkpt lat="45.80352" lon="-1.03128">
        <ele>5</ele>
        <time>2021-08-18T15:40:33+02:00</time>
      </trkpt>
      <trkpt lat="45.80366" lon="-1.03102">
        <ele>5</ele>
        <time>2021-08-18T15:40:52+02:00</time>
      </trkpt>
      <trkpt lat="45.80378" lon="-1.03071">
        <ele>5</ele>
        <time>2021-08-18T15:41:09+02:00</time>
      </trkpt>
      <trkpt lat="45.80392" lon="-1.03046">
        <ele>5</ele>
        <time>2021-08-18T15:41:27+02:00</time>
      </trkpt>
      <trkpt lat="45.80407" lon="-1.03021">
        <ele>5</ele>
        <time>2021-08-18T15:41:47+02:00</time>
      </trkpt>
      <trkpt lat="45.8042" lon="-1.02994">
        <ele>4</ele>
        <time>2021-08-18T15:42:01+02:00</time>
      </trkpt>
      <trkpt lat="45.80433" lon="-1.02965">
        <ele>3</ele>
        <time>2021-08-18T15:42:16+02:00</time>
      </trkpt>
      <trkpt lat="45.8044" lon="-1.02933">
        <ele>3</ele>
        <time>2021-08-18T15:42:32+02:00</time>
      </trkpt>
      <trkpt lat="45.80447" lon="-1.02902">
        <ele>3</ele>
        <time>2021-08-18T15:42:49+02:00</time>
      </trkpt>
      <trkpt lat="45.80452" lon="-1.02871">
        <ele>3</ele>
        <time>2021-08-18T15:43:06+02:00</time>
      </trkpt>
      <trkpt lat="45.80451" lon="-1.02837">
        <ele>3</ele>
        <time>2021-08-18T15:43:22+02:00</time>
      </trkpt>
      <trkpt lat="45.80444" lon="-1.02806">
        <ele>3</ele>
        <time>2021-08-18T15:43:40+02:00</time>
      </trkpt>
      <trkpt lat="45.80442" lon="-1.02773">
        <ele>3</ele>
        <time>2021-08-18T15:43:57+02:00</time>
      </trkpt>
      <trkpt lat="45.80449" lon="-1.02741">
        <ele>3</ele>
        <time>2021-08-18T15:44:15+02:00</time>
      </trkpt>
      <trkpt lat="45.80463" lon="-1.02713">
        <ele>3</ele>
        <time>2021-08-18T15:44:33+02:00</time>
      </trkpt>
      <trkpt lat="45.80473" lon="-1.02682">
        <ele>3</ele>
        <time>2021-08-18T15:44:51+02:00</time>
      </trkpt>
      <trkpt lat="45.80487" lon="-1.02656">
        <ele>3</ele>
        <time>2021-08-18T15:45:08+02:00</time>
      </trkpt>
      <trkpt lat="45.8051" lon="-1.02646">
        <ele>3</ele>
        <time>2021-08-18T15:45:26+02:00</time>
      </trkpt>
      <trkpt lat="45.80532" lon="-1.02635">
        <ele>3</ele>
        <time>2021-08-18T15:45:42+02:00</time>
      </trkpt>
      <trkpt lat="45.80548" lon="-1.02611">
        <ele>3</ele>
        <time>2021-08-18T15:46:13+02:00</time>
      </trkpt>
      <trkpt lat="45.80562" lon="-1.02584">
        <ele>3</ele>
        <time>2021-08-18T15:46:29+02:00</time>
      </trkpt>
      <trkpt lat="45.80579" lon="-1.02562">
        <ele>3</ele>
        <time>2021-08-18T15:46:47+02:00</time>
      </trkpt>
      <trkpt lat="45.80595" lon="-1.02538">
        <ele>3</ele>
        <time>2021-08-18T15:49:11+02:00</time>
      </trkpt>
      <trkpt lat="45.80595" lon="-1.02505">
        <ele>3</ele>
        <time>2021-08-18T15:49:50+02:00</time>
      </trkpt>
      <trkpt lat="45.80587" lon="-1.02474">
        <ele>3</ele>
        <time>2021-08-18T15:50:08+02:00</time>
      </trkpt>
      <trkpt lat="45.80583" lon="-1.02441">
        <ele>3</ele>
        <time>2021-08-18T15:50:26+02:00</time>
      </trkpt>
      <trkpt lat="45.80581" lon="-1.02407">
        <ele>3</ele>
        <time>2021-08-18T15:50:43+02:00</time>
      </trkpt>
      <trkpt lat="45.80574" lon="-1.02376">
        <ele>3</ele>
        <time>2021-08-18T15:51:00+02:00</time>
      </trkpt>
      <trkpt lat="45.80565" lon="-1.02346">
        <ele>3</ele>
        <time>2021-08-18T15:51:16+02:00</time>
      </trkpt>
      <trkpt lat="45.80558" lon="-1.02314">
        <ele>3</ele>
        <time>2021-08-18T15:51:34+02:00</time>
      </trkpt>
      <trkpt lat="45.80559" lon="-1.02282">
        <ele>3</ele>
        <time>2021-08-18T15:51:51+02:00</time>
      </trkpt>
      <trkpt lat="45.80568" lon="-1.02251">
        <ele>4</ele>
        <time>2021-08-18T15:52:12+02:00</time>
      </trkpt>
      <trkpt lat="45.80583" lon="-1.02226">
        <ele>3</ele>
        <time>2021-08-18T15:52:30+02:00</time>
      </trkpt>
      <trkpt lat="45.80604" lon="-1.0221">
        <ele>3</ele>
        <time>2021-08-18T15:52:46+02:00</time>
      </trkpt>
      <trkpt lat="45.80625" lon="-1.02195">
        <ele>3</ele>
        <time>2021-08-18T15:53:04+02:00</time>
      </trkpt>
      <trkpt lat="45.80646" lon="-1.02182">
        <ele>4</ele>
        <time>2021-08-18T15:53:21+02:00</time>
      </trkpt>
      <trkpt lat="45.80668" lon="-1.02172">
        <ele>3</ele>
        <time>2021-08-18T15:53:37+02:00</time>
      </trkpt>
      <trkpt lat="45.8069" lon="-1.02158">
        <ele>3</ele>
        <time>2021-08-18T15:53:55+02:00</time>
      </trkpt>
      <trkpt lat="45.80704" lon="-1.02131">
        <ele>3</ele>
        <time>2021-08-18T15:54:11+02:00</time>
      </trkpt>
      <trkpt lat="45.80705" lon="-1.02098">
        <ele>3</ele>
        <time>2021-08-18T15:54:29+02:00</time>
      </trkpt>
      <trkpt lat="45.80707" lon="-1.02064">
        <ele>3</ele>
        <time>2021-08-18T15:54:46+02:00</time>
      </trkpt>
      <trkpt lat="45.80716" lon="-1.02034">
        <ele>3</ele>
        <time>2021-08-18T15:55:02+02:00</time>
      </trkpt>
      <trkpt lat="45.8073" lon="-1.02008">
        <ele>3</ele>
        <time>2021-08-18T15:55:19+02:00</time>
      </trkpt>
      <trkpt lat="45.80744" lon="-1.01982">
        <ele>3</ele>
        <time>2021-08-18T15:55:38+02:00</time>
      </trkpt>
      <trkpt lat="45.80763" lon="-1.01965">
        <ele>3</ele>
        <time>2021-08-18T15:56:07+02:00</time>
      </trkpt>
      <trkpt lat="45.80784" lon="-1.01982">
        <ele>3</ele>
        <time>2021-08-18T15:56:25+02:00</time>
      </trkpt>
      <trkpt lat="45.80804" lon="-1.01998">
        <ele>3</ele>
        <time>2021-08-18T15:56:40+02:00</time>
      </trkpt>
      <trkpt lat="45.80824" lon="-1.02015">
        <ele>3</ele>
        <time>2021-08-18T15:56:58+02:00</time>
      </trkpt>
      <trkpt lat="45.80847" lon="-1.02023">
        <ele>3</ele>
        <time>2021-08-18T15:57:15+02:00</time>
      </trkpt>
      <trkpt lat="45.80869" lon="-1.02016">
        <ele>3</ele>
        <time>2021-08-18T15:57:32+02:00</time>
      </trkpt>
      <trkpt lat="45.80893" lon="-1.02011">
        <ele>3</ele>
        <time>2021-08-18T15:57:48+02:00</time>
      </trkpt>
      <trkpt lat="45.80915" lon="-1.01999">
        <ele>3</ele>
        <time>2021-08-18T15:58:04+02:00</time>
      </trkpt>
      <trkpt lat="45.80934" lon="-1.01979">
        <ele>3</ele>
        <time>2021-08-18T15:58:22+02:00</time>
      </trkpt>
      <trkpt lat="45.80953" lon="-1.0196">
        <ele>3</ele>
        <time>2021-08-18T15:58:40+02:00</time>
      </trkpt>
      <trkpt lat="45.80973" lon="-1.01944">
        <ele>3</ele>
        <time>2021-08-18T15:58:57+02:00</time>
      </trkpt>
      <trkpt lat="45.80995" lon="-1.01934">
        <ele>3</ele>
        <time>2021-08-18T15:59:14+02:00</time>
      </trkpt>
      <trkpt lat="45.81018" lon="-1.01927">
        <ele>3</ele>
        <time>2021-08-18T15:59:31+02:00</time>
      </trkpt>
      <trkpt lat="45.81041" lon="-1.0192">
        <ele>3</ele>
        <time>2021-08-18T15:59:49+02:00</time>
      </trkpt>
      <trkpt lat="45.81063" lon="-1.01912">
        <ele>3</ele>
        <time>2021-08-18T16:00:06+02:00</time>
      </trkpt>
      <trkpt lat="45.81086" lon="-1.01905">
        <ele>3</ele>
        <time>2021-08-18T16:00:23+02:00</time>
      </trkpt>
      <trkpt lat="45.81109" lon="-1.01906">
        <ele>3</ele>
        <time>2021-08-18T16:00:37+02:00</time>
      </trkpt>
      <trkpt lat="45.8113" lon="-1.01921">
        <ele>3</ele>
        <time>2021-08-18T16:00:55+02:00</time>
      </trkpt>
      <trkpt lat="45.81139" lon="-1.01952">
        <ele>3</ele>
        <time>2021-08-18T16:01:11+02:00</time>
      </trkpt>
      <trkpt lat="45.81149" lon="-1.01983">
        <ele>3</ele>
        <time>2021-08-18T16:01:28+02:00</time>
      </trkpt>
      <trkpt lat="45.81167" lon="-1.02003">
        <ele>3</ele>
        <time>2021-08-18T16:01:45+02:00</time>
      </trkpt>
      <trkpt lat="45.81188" lon="-1.02019">
        <ele>4</ele>
        <time>2021-08-18T16:02:03+02:00</time>
      </trkpt>
      <trkpt lat="45.81208" lon="-1.02035">
        <ele>4</ele>
        <time>2021-08-18T16:02:19+02:00</time>
      </trkpt>
      <trkpt lat="45.8123" lon="-1.02051">
        <ele>3</ele>
        <time>2021-08-18T16:02:39+02:00</time>
      </trkpt>
      <trkpt lat="45.81253" lon="-1.0205">
        <ele>3</ele>
        <time>2021-08-18T16:02:56+02:00</time>
      </trkpt>
      <trkpt lat="45.81272" lon="-1.02032">
        <ele>3</ele>
        <time>2021-08-18T16:03:12+02:00</time>
      </trkpt>
      <trkpt lat="45.81287" lon="-1.02007">
        <ele>3</ele>
        <time>2021-08-18T16:03:29+02:00</time>
      </trkpt>
      <trkpt lat="45.81304" lon="-1.01985">
        <ele>3</ele>
        <time>2021-08-18T16:03:45+02:00</time>
      </trkpt>
      <trkpt lat="45.81326" lon="-1.01978">
        <ele>3</ele>
        <time>2021-08-18T16:04:02+02:00</time>
      </trkpt>
      <trkpt lat="45.8135" lon="-1.01977">
        <ele>3</ele>
        <time>2021-08-18T16:04:17+02:00</time>
      </trkpt>
      <trkpt lat="45.81373" lon="-1.01969">
        <ele>3</ele>
        <time>2021-08-18T16:04:36+02:00</time>
      </trkpt>
      <trkpt lat="45.81397" lon="-1.01964">
        <ele>3</ele>
        <time>2021-08-18T16:04:54+02:00</time>
      </trkpt>
      <trkpt lat="45.81419" lon="-1.01971">
        <ele>3</ele>
        <time>2021-08-18T16:05:16+02:00</time>
      </trkpt>
      <trkpt lat="45.81442" lon="-1.01977">
        <ele>3</ele>
        <time>2021-08-18T16:05:33+02:00</time>
      </trkpt>
      <trkpt lat="45.81464" lon="-1.01989">
        <ele>4</ele>
        <time>2021-08-18T16:05:53+02:00</time>
      </trkpt>
      <trkpt lat="45.81486" lon="-1.01994">
        <ele>4</ele>
        <time>2021-08-18T16:06:10+02:00</time>
      </trkpt>
      <trkpt lat="45.81509" lon="-1.0199">
        <ele>3</ele>
        <time>2021-08-18T16:06:26+02:00</time>
      </trkpt>
      <trkpt lat="45.81532" lon="-1.01993">
        <ele>3</ele>
        <time>2021-08-18T16:06:44+02:00</time>
      </trkpt>
      <trkpt lat="45.81556" lon="-1.01988">
        <ele>3</ele>
        <time>2021-08-18T16:07:02+02:00</time>
      </trkpt>
      <trkpt lat="45.81578" lon="-1.01985">
        <ele>3</ele>
        <time>2021-08-18T16:07:19+02:00</time>
      </trkpt>
      <trkpt lat="45.81602" lon="-1.01989">
        <ele>3</ele>
        <time>2021-08-18T16:07:44+02:00</time>
      </trkpt>
      <trkpt lat="45.81625" lon="-1.01996">
        <ele>3</ele>
        <time>2021-08-18T16:07:59+02:00</time>
      </trkpt>
      <trkpt lat="45.81648" lon="-1.02003">
        <ele>3</ele>
        <time>2021-08-18T16:08:30+02:00</time>
      </trkpt>
      <trkpt lat="45.81671" lon="-1.01998">
        <ele>3</ele>
        <time>2021-08-18T16:08:46+02:00</time>
      </trkpt>
      <trkpt lat="45.81691" lon="-1.01981">
        <ele>3</ele>
        <time>2021-08-18T16:09:03+02:00</time>
      </trkpt>
      <trkpt lat="45.81712" lon="-1.01966">
        <ele>3</ele>
        <time>2021-08-18T16:09:20+02:00</time>
      </trkpt>
      <trkpt lat="45.81731" lon="-1.01947">
        <ele>3</ele>
        <time>2021-08-18T16:09:39+02:00</time>
      </trkpt>
      <trkpt lat="45.81753" lon="-1.01934">
        <ele>3</ele>
        <time>2021-08-18T16:09:56+02:00</time>
      </trkpt>
      <trkpt lat="45.81776" lon="-1.01923">
        <ele>3</ele>
        <time>2021-08-18T16:10:13+02:00</time>
      </trkpt>
      <trkpt lat="45.81798" lon="-1.01914">
        <ele>3</ele>
        <time>2021-08-18T16:10:32+02:00</time>
      </trkpt>
      <trkpt lat="45.81821" lon="-1.01912">
        <ele>3</ele>
        <time>2021-08-18T16:10:48+02:00</time>
      </trkpt>
      <trkpt lat="45.81845" lon="-1.01906">
        <ele>3</ele>
        <time>2021-08-18T16:11:03+02:00</time>
      </trkpt>
      <trkpt lat="45.81866" lon="-1.01893">
        <ele>3</ele>
        <time>2021-08-18T16:11:20+02:00</time>
      </trkpt>
      <trkpt lat="45.81886" lon="-1.0188">
        <ele>3</ele>
        <time>2021-08-18T16:11:38+02:00</time>
      </trkpt>
      <trkpt lat="45.81908" lon="-1.01869">
        <ele>3</ele>
        <time>2021-08-18T16:11:55+02:00</time>
      </trkpt>
      <trkpt lat="45.81928" lon="-1.01856">
        <ele>4</ele>
        <time>2021-08-18T16:12:10+02:00</time>
      </trkpt>
      <trkpt lat="45.8195" lon="-1.01841">
        <ele>3</ele>
        <time>2021-08-18T16:12:28+02:00</time>
      </trkpt>
      <trkpt lat="45.81971" lon="-1.01823">
        <ele>4</ele>
        <time>2021-08-18T16:12:44+02:00</time>
      </trkpt>
      <trkpt lat="45.81987" lon="-1.01801">
        <ele>4</ele>
        <time>2021-08-18T16:12:59+02:00</time>
      </trkpt>
      <trkpt lat="45.82002" lon="-1.01776">
        <ele>4</ele>
        <time>2021-08-18T16:13:17+02:00</time>
      </trkpt>
      <trkpt lat="45.82011" lon="-1.01745">
        <ele>4</ele>
        <time>2021-08-18T16:13:34+02:00</time>
      </trkpt>
      <trkpt lat="45.82018" lon="-1.01713">
        <ele>4</ele>
        <time>2021-08-18T16:13:50+02:00</time>
      </trkpt>
      <trkpt lat="45.82026" lon="-1.01681">
        <ele>4</ele>
        <time>2021-08-18T16:14:08+02:00</time>
      </trkpt>
      <trkpt lat="45.82034" lon="-1.0165">
        <ele>4</ele>
        <time>2021-08-18T16:14:25+02:00</time>
      </trkpt>
      <trkpt lat="45.82038" lon="-1.01617">
        <ele>3</ele>
        <time>2021-08-18T16:14:42+02:00</time>
      </trkpt>
      <trkpt lat="45.82041" lon="-1.01584">
        <ele>3</ele>
        <time>2021-08-18T16:14:59+02:00</time>
      </trkpt>
      <trkpt lat="45.82039" lon="-1.01551">
        <ele>3</ele>
        <time>2021-08-18T16:15:15+02:00</time>
      </trkpt>
      <trkpt lat="45.8205" lon="-1.01521">
        <ele>4</ele>
        <time>2021-08-18T16:15:31+02:00</time>
      </trkpt>
      <trkpt lat="45.8207" lon="-1.01503">
        <ele>3</ele>
        <time>2021-08-18T16:15:48+02:00</time>
      </trkpt>
      <trkpt lat="45.82092" lon="-1.01494">
        <ele>3</ele>
        <time>2021-08-18T16:16:06+02:00</time>
      </trkpt>
      <trkpt lat="45.82115" lon="-1.01487">
        <ele>3</ele>
        <time>2021-08-18T16:16:23+02:00</time>
      </trkpt>
      <trkpt lat="45.82137" lon="-1.01479">
        <ele>2</ele>
        <time>2021-08-18T16:16:39+02:00</time>
      </trkpt>
      <trkpt lat="45.82159" lon="-1.01471">
        <ele>3</ele>
        <time>2021-08-18T16:16:55+02:00</time>
      </trkpt>
      <trkpt lat="45.82176" lon="-1.01446">
        <ele>3</ele>
        <time>2021-08-18T16:17:12+02:00</time>
      </trkpt>
      <trkpt lat="45.82194" lon="-1.01425">
        <ele>3</ele>
        <time>2021-08-18T16:17:28+02:00</time>
      </trkpt>
      <trkpt lat="45.82216" lon="-1.01418">
        <ele>3</ele>
        <time>2021-08-18T16:17:45+02:00</time>
      </trkpt>
      <trkpt lat="45.82238" lon="-1.0141">
        <ele>3</ele>
        <time>2021-08-18T16:18:02+02:00</time>
      </trkpt>
      <trkpt lat="45.8226" lon="-1.01398">
        <ele>3</ele>
        <time>2021-08-18T16:18:18+02:00</time>
      </trkpt>
      <trkpt lat="45.82282" lon="-1.01388">
        <ele>3</ele>
        <time>2021-08-18T16:18:35+02:00</time>
      </trkpt>
      <trkpt lat="45.82304" lon="-1.01377">
        <ele>3</ele>
        <time>2021-08-18T16:18:51+02:00</time>
      </trkpt>
      <trkpt lat="45.82324" lon="-1.0136">
        <ele>3</ele>
        <time>2021-08-18T16:19:08+02:00</time>
      </trkpt>
      <trkpt lat="45.82339" lon="-1.01334">
        <ele>3</ele>
        <time>2021-08-18T16:19:27+02:00</time>
      </trkpt>
      <trkpt lat="45.82353" lon="-1.01307">
        <ele>3</ele>
        <time>2021-08-18T16:19:54+02:00</time>
      </trkpt>
      <trkpt lat="45.82364" lon="-1.01277">
        <ele>4</ele>
        <time>2021-08-18T16:20:12+02:00</time>
      </trkpt>
      <trkpt lat="45.8238" lon="-1.01254">
        <ele>3</ele>
        <time>2021-08-18T16:20:28+02:00</time>
      </trkpt>
      <trkpt lat="45.82394" lon="-1.01229">
        <ele>3</ele>
        <time>2021-08-18T16:20:46+02:00</time>
      </trkpt>
      <trkpt lat="45.82412" lon="-1.01207">
        <ele>3</ele>
        <time>2021-08-18T16:21:01+02:00</time>
      </trkpt>
      <trkpt lat="45.82429" lon="-1.01185">
        <ele>3</ele>
        <time>2021-08-18T16:21:18+02:00</time>
      </trkpt>
      <trkpt lat="45.82445" lon="-1.01161">
        <ele>3</ele>
        <time>2021-08-18T16:21:35+02:00</time>
      </trkpt>
      <trkpt lat="45.82462" lon="-1.0114">
        <ele>3</ele>
        <time>2021-08-18T16:21:52+02:00</time>
      </trkpt>
      <trkpt lat="45.82485" lon="-1.01143">
        <ele>3</ele>
        <time>2021-08-18T16:22:21+02:00</time>
      </trkpt>
      <trkpt lat="45.82505" lon="-1.01158">
        <ele>3</ele>
        <time>2021-08-18T16:22:37+02:00</time>
      </trkpt>
      <trkpt lat="45.82527" lon="-1.01166">
        <ele>3</ele>
        <time>2021-08-18T16:22:54+02:00</time>
      </trkpt>
      <trkpt lat="45.82549" lon="-1.01178">
        <ele>3</ele>
        <time>2021-08-18T16:23:13+02:00</time>
      </trkpt>
      <trkpt lat="45.82564" lon="-1.01202">
        <ele>3</ele>
        <time>2021-08-18T16:23:29+02:00</time>
      </trkpt>
      <trkpt lat="45.82578" lon="-1.01229">
        <ele>3</ele>
        <time>2021-08-18T16:23:46+02:00</time>
      </trkpt>
      <trkpt lat="45.82588" lon="-1.01259">
        <ele>3</ele>
        <time>2021-08-18T16:24:02+02:00</time>
      </trkpt>
      <trkpt lat="45.82598" lon="-1.01287">
        <ele>3</ele>
        <time>2021-08-18T16:24:19+02:00</time>
      </trkpt>
      <trkpt lat="45.82611" lon="-1.01316">
        <ele>3</ele>
        <time>2021-08-18T16:24:36+02:00</time>
      </trkpt>
      <trkpt lat="45.82623" lon="-1.01345">
        <ele>3</ele>
        <time>2021-08-18T16:24:52+02:00</time>
      </trkpt>
      <trkpt lat="45.82639" lon="-1.01367">
        <ele>3</ele>
        <time>2021-08-18T16:25:09+02:00</time>
      </trkpt>
      <trkpt lat="45.82655" lon="-1.01392">
        <ele>3</ele>
        <time>2021-08-18T16:25:26+02:00</time>
      </trkpt>
      <trkpt lat="45.82668" lon="-1.01421">
        <ele>3</ele>
        <time>2021-08-18T16:25:45+02:00</time>
      </trkpt>
      <trkpt lat="45.82673" lon="-1.01452">
        <ele>3</ele>
        <time>2021-08-18T16:26:01+02:00</time>
      </trkpt>
      <trkpt lat="45.82689" lon="-1.01477">
        <ele>3</ele>
        <time>2021-08-18T16:26:18+02:00</time>
      </trkpt>
      <trkpt lat="45.8271" lon="-1.01491">
        <ele>3</ele>
        <time>2021-08-18T16:26:35+02:00</time>
      </trkpt>
      <trkpt lat="45.82731" lon="-1.01499">
        <ele>3</ele>
        <time>2021-08-18T16:26:53+02:00</time>
      </trkpt>
      <trkpt lat="45.82754" lon="-1.01497">
        <ele>3</ele>
        <time>2021-08-18T16:27:11+02:00</time>
      </trkpt>
      <trkpt lat="45.82778" lon="-1.01506">
        <ele>3</ele>
        <time>2021-08-18T16:27:34+02:00</time>
      </trkpt>
      <trkpt lat="45.82793" lon="-1.01531">
        <ele>3</ele>
        <time>2021-08-18T16:27:51+02:00</time>
      </trkpt>
      <trkpt lat="45.82804" lon="-1.01561">
        <ele>3</ele>
        <time>2021-08-18T16:28:11+02:00</time>
      </trkpt>
      <trkpt lat="45.82818" lon="-1.01586">
        <ele>3</ele>
        <time>2021-08-18T16:28:22+02:00</time>
      </trkpt>
      <trkpt lat="45.82828" lon="-1.01616">
        <ele>3</ele>
        <time>2021-08-18T16:28:41+02:00</time>
      </trkpt>
      <trkpt lat="45.8284" lon="-1.01645">
        <ele>3</ele>
        <time>2021-08-18T16:28:59+02:00</time>
      </trkpt>
      <trkpt lat="45.82854" lon="-1.01672">
        <ele>3</ele>
        <time>2021-08-18T16:29:41+02:00</time>
      </trkpt>
      <trkpt lat="45.82844" lon="-1.01702">
        <ele>3</ele>
        <time>2021-08-18T16:31:44+02:00</time>
      </trkpt>
      <trkpt lat="45.82846" lon="-1.01735">
        <ele>3</ele>
        <time>2021-08-18T16:32:01+02:00</time>
      </trkpt>
      <trkpt lat="45.82844" lon="-1.01768">
        <ele>3</ele>
        <time>2021-08-18T16:32:20+02:00</time>
      </trkpt>
      <trkpt lat="45.82835" lon="-1.01799">
        <ele>3</ele>
        <time>2021-08-18T16:32:39+02:00</time>
      </trkpt>
      <trkpt lat="45.82825" lon="-1.01828">
        <ele>3</ele>
        <time>2021-08-18T16:33:58+02:00</time>
      </trkpt>
      <trkpt lat="45.82816" lon="-1.01858">
        <ele>3</ele>
        <time>2021-08-18T16:34:14+02:00</time>
      </trkpt>
      <trkpt lat="45.82809" lon="-1.01889">
        <ele>3</ele>
        <time>2021-08-18T16:34:30+02:00</time>
      </trkpt>
      <trkpt lat="45.82808" lon="-1.01922">
        <ele>3</ele>
        <time>2021-08-18T16:34:48+02:00</time>
      </trkpt>
      <trkpt lat="45.82798" lon="-1.01951">
        <ele>3</ele>
        <time>2021-08-18T16:35:05+02:00</time>
      </trkpt>
      <trkpt lat="45.82781" lon="-1.01973">
        <ele>3</ele>
        <time>2021-08-18T16:35:24+02:00</time>
      </trkpt>
      <trkpt lat="45.82763" lon="-1.01992">
        <ele>3</ele>
        <time>2021-08-18T16:35:41+02:00</time>
      </trkpt>
      <trkpt lat="45.82743" lon="-1.02009">
        <ele>3</ele>
        <time>2021-08-18T16:35:58+02:00</time>
      </trkpt>
      <trkpt lat="45.82725" lon="-1.02029">
        <ele>3</ele>
        <time>2021-08-18T16:36:16+02:00</time>
      </trkpt>
      <trkpt lat="45.82708" lon="-1.0205">
        <ele>3</ele>
        <time>2021-08-18T16:36:34+02:00</time>
      </trkpt>
      <trkpt lat="45.82693" lon="-1.02075">
        <ele>3</ele>
        <time>2021-08-18T16:36:52+02:00</time>
      </trkpt>
      <trkpt lat="45.82683" lon="-1.02106">
        <ele>3</ele>
        <time>2021-08-18T16:37:09+02:00</time>
      </trkpt>
      <trkpt lat="45.82675" lon="-1.02136">
        <ele>3</ele>
        <time>2021-08-18T16:37:26+02:00</time>
      </trkpt>
      <trkpt lat="45.82669" lon="-1.02168">
        <ele>3</ele>
        <time>2021-08-18T16:37:45+02:00</time>
      </trkpt>
      <trkpt lat="45.82667" lon="-1.02201">
        <ele>3</ele>
        <time>2021-08-18T16:38:04+02:00</time>
      </trkpt>
      <trkpt lat="45.82667" lon="-1.02234">
        <ele>3</ele>
        <time>2021-08-18T16:38:23+02:00</time>
      </trkpt>
      <trkpt lat="45.82671" lon="-1.02267">
        <ele>3</ele>
        <time>2021-08-18T16:38:41+02:00</time>
      </trkpt>
      <trkpt lat="45.82673" lon="-1.023">
        <ele>3</ele>
        <time>2021-08-18T16:39:00+02:00</time>
      </trkpt>
      <trkpt lat="45.82675" lon="-1.02333">
        <ele>3</ele>
        <time>2021-08-18T16:39:16+02:00</time>
      </trkpt>
      <trkpt lat="45.82684" lon="-1.02364">
        <ele>3</ele>
        <time>2021-08-18T16:39:39+02:00</time>
      </trkpt>
      <trkpt lat="45.82697" lon="-1.02391">
        <ele>3</ele>
        <time>2021-08-18T16:39:58+02:00</time>
      </trkpt>
      <trkpt lat="45.827" lon="-1.02424">
        <ele>3</ele>
        <time>2021-08-18T16:40:15+02:00</time>
      </trkpt>
      <trkpt lat="45.82704" lon="-1.02457">
        <ele>3</ele>
        <time>2021-08-18T16:40:33+02:00</time>
      </trkpt>
      <trkpt lat="45.82703" lon="-1.0249">
        <ele>3</ele>
        <time>2021-08-18T16:40:50+02:00</time>
      </trkpt>
      <trkpt lat="45.82697" lon="-1.02522">
        <ele>3</ele>
        <time>2021-08-18T16:41:07+02:00</time>
      </trkpt>
      <trkpt lat="45.8269" lon="-1.02554">
        <ele>3</ele>
        <time>2021-08-18T16:41:26+02:00</time>
      </trkpt>
      <trkpt lat="45.8268" lon="-1.02583">
        <ele>3</ele>
        <time>2021-08-18T16:41:42+02:00</time>
      </trkpt>
      <trkpt lat="45.82669" lon="-1.02612">
        <ele>3</ele>
        <time>2021-08-18T16:42:00+02:00</time>
      </trkpt>
      <trkpt lat="45.82655" lon="-1.02639">
        <ele>3</ele>
        <time>2021-08-18T16:42:16+02:00</time>
      </trkpt>
      <trkpt lat="45.82646" lon="-1.02668">
        <ele>4</ele>
        <time>2021-08-18T16:42:34+02:00</time>
      </trkpt>
      <trkpt lat="45.82629" lon="-1.02692">
        <ele>3</ele>
        <time>2021-08-18T16:42:51+02:00</time>
      </trkpt>
      <trkpt lat="45.82617" lon="-1.02721">
        <ele>3</ele>
        <time>2021-08-18T16:43:10+02:00</time>
      </trkpt>
      <trkpt lat="45.82601" lon="-1.02744">
        <ele>3</ele>
        <time>2021-08-18T16:43:27+02:00</time>
      </trkpt>
      <trkpt lat="45.82579" lon="-1.02737">
        <ele>3</ele>
        <time>2021-08-18T16:43:55+02:00</time>
      </trkpt>
      <trkpt lat="45.82556" lon="-1.02735">
        <ele>3</ele>
        <time>2021-08-18T16:44:11+02:00</time>
      </trkpt>
      <trkpt lat="45.82533" lon="-1.02736">
        <ele>3</ele>
        <time>2021-08-18T16:44:30+02:00</time>
      </trkpt>
      <trkpt lat="45.8251" lon="-1.02734">
        <ele>3</ele>
        <time>2021-08-18T16:44:48+02:00</time>
      </trkpt>
      <trkpt lat="45.82487" lon="-1.02733">
        <ele>3</ele>
        <time>2021-08-18T16:45:05+02:00</time>
      </trkpt>
      <trkpt lat="45.82463" lon="-1.02735">
        <ele>3</ele>
        <time>2021-08-18T16:45:23+02:00</time>
      </trkpt>
      <trkpt lat="45.82441" lon="-1.0273">
        <ele>3</ele>
        <time>2021-08-18T16:45:38+02:00</time>
      </trkpt>
      <trkpt lat="45.82418" lon="-1.02728">
        <ele>3</ele>
        <time>2021-08-18T16:45:55+02:00</time>
      </trkpt>
      <trkpt lat="45.82395" lon="-1.02727">
        <ele>3</ele>
        <time>2021-08-18T16:46:12+02:00</time>
      </trkpt>
      <trkpt lat="45.82372" lon="-1.02726">
        <ele>3</ele>
        <time>2021-08-18T16:46:31+02:00</time>
      </trkpt>
      <trkpt lat="45.82349" lon="-1.02725">
        <ele>3</ele>
        <time>2021-08-18T16:46:48+02:00</time>
      </trkpt>
      <trkpt lat="45.82326" lon="-1.02723">
        <ele>3</ele>
        <time>2021-08-18T16:47:04+02:00</time>
      </trkpt>
      <trkpt lat="45.82303" lon="-1.02724">
        <ele>3</ele>
        <time>2021-08-18T16:47:22+02:00</time>
      </trkpt>
      <trkpt lat="45.8228" lon="-1.02719">
        <ele>3</ele>
        <time>2021-08-18T16:47:48+02:00</time>
      </trkpt>
      <trkpt lat="45.82256" lon="-1.02722">
        <ele>3</ele>
        <time>2021-08-18T16:48:19+02:00</time>
      </trkpt>
      <trkpt lat="45.82232" lon="-1.02724">
        <ele>3</ele>
        <time>2021-08-18T16:48:28+02:00</time>
      </trkpt>
      <trkpt lat="45.82209" lon="-1.02725">
        <ele>3</ele>
        <time>2021-08-18T16:48:46+02:00</time>
      </trkpt>
      <trkpt lat="45.82187" lon="-1.0273">
        <ele>3</ele>
        <time>2021-08-18T16:49:04+02:00</time>
      </trkpt>
      <trkpt lat="45.82164" lon="-1.02737">
        <ele>3</ele>
        <time>2021-08-18T16:49:22+02:00</time>
      </trkpt>
      <trkpt lat="45.82143" lon="-1.02747">
        <ele>3</ele>
        <time>2021-08-18T16:49:40+02:00</time>
      </trkpt>
      <trkpt lat="45.82121" lon="-1.0276">
        <ele>3</ele>
        <time>2021-08-18T16:49:57+02:00</time>
      </trkpt>
      <trkpt lat="45.821" lon="-1.02776">
        <ele>3</ele>
        <time>2021-08-18T16:50:16+02:00</time>
      </trkpt>
      <trkpt lat="45.82082" lon="-1.02797">
        <ele>3</ele>
        <time>2021-08-18T16:50:35+02:00</time>
      </trkpt>
      <trkpt lat="45.8206" lon="-1.02808">
        <ele>3</ele>
        <time>2021-08-18T16:50:51+02:00</time>
      </trkpt>
      <trkpt lat="45.82037" lon="-1.02813">
        <ele>3</ele>
        <time>2021-08-18T16:51:09+02:00</time>
      </trkpt>
      <trkpt lat="45.82015" lon="-1.02819">
        <ele>3</ele>
        <time>2021-08-18T16:51:26+02:00</time>
      </trkpt>
      <trkpt lat="45.81992" lon="-1.02826">
        <ele>3</ele>
        <time>2021-08-18T16:51:43+02:00</time>
      </trkpt>
      <trkpt lat="45.8197" lon="-1.02833">
        <ele>3</ele>
        <time>2021-08-18T16:52:00+02:00</time>
      </trkpt>
      <trkpt lat="45.81947" lon="-1.02839">
        <ele>3</ele>
        <time>2021-08-18T16:52:19+02:00</time>
      </trkpt>
      <trkpt lat="45.81924" lon="-1.02849">
        <ele>3</ele>
        <time>2021-08-18T16:52:36+02:00</time>
      </trkpt>
      <trkpt lat="45.81902" lon="-1.02858">
        <ele>3</ele>
        <time>2021-08-18T16:52:53+02:00</time>
      </trkpt>
      <trkpt lat="45.81879" lon="-1.0286">
        <ele>3</ele>
        <time>2021-08-18T16:53:10+02:00</time>
      </trkpt>
      <trkpt lat="45.81856" lon="-1.02852">
        <ele>3</ele>
        <time>2021-08-18T16:53:29+02:00</time>
      </trkpt>
      <trkpt lat="45.81834" lon="-1.0285">
        <ele>3</ele>
        <time>2021-08-18T16:53:46+02:00</time>
      </trkpt>
      <trkpt lat="45.8181" lon="-1.02852">
        <ele>3</ele>
        <time>2021-08-18T16:54:03+02:00</time>
      </trkpt>
      <trkpt lat="45.81797" lon="-1.02879">
        <ele>3</ele>
        <time>2021-08-18T16:54:21+02:00</time>
      </trkpt>
      <trkpt lat="45.81787" lon="-1.02908">
        <ele>3</ele>
        <time>2021-08-18T16:54:37+02:00</time>
      </trkpt>
      <trkpt lat="45.81768" lon="-1.02927">
        <ele>3</ele>
        <time>2021-08-18T16:54:54+02:00</time>
      </trkpt>
      <trkpt lat="45.81746" lon="-1.02934">
        <ele>3</ele>
        <time>2021-08-18T16:55:12+02:00</time>
      </trkpt>
      <trkpt lat="45.81724" lon="-1.02944">
        <ele>3</ele>
        <time>2021-08-18T16:55:30+02:00</time>
      </trkpt>
      <trkpt lat="45.81703" lon="-1.02959">
        <ele>3</ele>
        <time>2021-08-18T16:55:46+02:00</time>
      </trkpt>
      <trkpt lat="45.8168" lon="-1.02957">
        <ele>3</ele>
        <time>2021-08-18T16:56:06+02:00</time>
      </trkpt>
      <trkpt lat="45.81658" lon="-1.0297">
        <ele>3</ele>
        <time>2021-08-18T16:56:26+02:00</time>
      </trkpt>
      <trkpt lat="45.81639" lon="-1.02988">
        <ele>3</ele>
        <time>2021-08-18T16:56:42+02:00</time>
      </trkpt>
      <trkpt lat="45.81622" lon="-1.0301">
        <ele>3</ele>
        <time>2021-08-18T16:56:58+02:00</time>
      </trkpt>
      <trkpt lat="45.81601" lon="-1.03023">
        <ele>3</ele>
        <time>2021-08-18T16:57:15+02:00</time>
      </trkpt>
      <trkpt lat="45.81579" lon="-1.03035">
        <ele>3</ele>
        <time>2021-08-18T16:57:32+02:00</time>
      </trkpt>
      <trkpt lat="45.81562" lon="-1.03057">
        <ele>3</ele>
        <time>2021-08-18T16:57:49+02:00</time>
      </trkpt>
      <trkpt lat="45.81549" lon="-1.03064">
        <ele>2.2</ele>
        <time>2021-10-15T08:29:57+02:00</time>
      </trkpt>
      <trkpt lat="45.81539" lon="-1.03054">
        <ele>3</ele>
        <time>2021-08-18T16:58:08+02:00</time>
      </trkpt>
      <trkpt lat="45.81528" lon="-1.03025">
        <ele>3</ele>
        <time>2021-08-18T16:58:24+02:00</time>
      </trkpt>
      <trkpt lat="45.81514" lon="-1.02999">
        <ele>3</ele>
        <time>2021-08-18T16:58:42+02:00</time>
      </trkpt>
      <trkpt lat="45.81501" lon="-1.02972">
        <ele>3</ele>
        <time>2021-08-18T16:59:00+02:00</time>
      </trkpt>
      <trkpt lat="45.81477" lon="-1.02969">
        <ele>3</ele>
        <time>2021-08-18T16:59:18+02:00</time>
      </trkpt>
      <trkpt lat="45.81454" lon="-1.02973">
        <ele>3</ele>
        <time>2021-08-18T16:59:34+02:00</time>
      </trkpt>
      <trkpt lat="45.81431" lon="-1.02971">
        <ele>3</ele>
        <time>2021-08-18T16:59:54+02:00</time>
      </trkpt>
      <trkpt lat="45.81417" lon="-1.02945">
        <ele>3</ele>
        <time>2021-08-18T17:00:13+02:00</time>
      </trkpt>
      <trkpt lat="45.81402" lon="-1.02917">
        <ele>2</ele>
        <time>2021-08-18T17:00:33+02:00</time>
      </trkpt>
      <trkpt lat="45.81376" lon="-1.02919">
        <ele>2</ele>
        <time>2021-08-18T17:00:51+02:00</time>
      </trkpt>
      <trkpt lat="45.81352" lon="-1.02924">
        <ele>2</ele>
        <time>2021-08-18T17:01:06+02:00</time>
      </trkpt>
      <trkpt lat="45.81329" lon="-1.02928">
        <ele>3</ele>
        <time>2021-08-18T17:01:25+02:00</time>
      </trkpt>
      <trkpt lat="45.81309" lon="-1.02914">
        <ele>3</ele>
        <time>2021-08-18T17:01:42+02:00</time>
      </trkpt>
      <trkpt lat="45.81285" lon="-1.0291">
        <ele>3</ele>
        <time>2021-08-18T17:01:58+02:00</time>
      </trkpt>
      <trkpt lat="45.81264" lon="-1.02924">
        <ele>3</ele>
        <time>2021-08-18T17:02:16+02:00</time>
      </trkpt>
      <trkpt lat="45.81244" lon="-1.0294">
        <ele>3</ele>
        <time>2021-08-18T17:02:32+02:00</time>
      </trkpt>
      <trkpt lat="45.81221" lon="-1.02942">
        <ele>3</ele>
        <time>2021-08-18T17:02:47+02:00</time>
      </trkpt>
      <trkpt lat="45.81197" lon="-1.02941">
        <ele>2</ele>
        <time>2021-08-18T17:03:04+02:00</time>
      </trkpt>
      <trkpt lat="45.8118" lon="-1.02964">
        <ele>3</ele>
        <time>2021-08-18T17:03:21+02:00</time>
      </trkpt>
      <trkpt lat="45.81166" lon="-1.02989">
        <ele>3</ele>
        <time>2021-08-18T17:03:41+02:00</time>
      </trkpt>
      <trkpt lat="45.81148" lon="-1.03011">
        <ele>3</ele>
        <time>2021-08-18T17:03:58+02:00</time>
      </trkpt>
      <trkpt lat="45.81128" lon="-1.03026">
        <ele>3</ele>
        <time>2021-08-18T17:04:15+02:00</time>
      </trkpt>
      <trkpt lat="45.81108" lon="-1.03041">
        <ele>3</ele>
        <time>2021-08-18T17:04:33+02:00</time>
      </trkpt>
      <trkpt lat="45.81087" lon="-1.0306">
        <ele>3</ele>
        <time>2021-08-18T17:04:50+02:00</time>
      </trkpt>
      <trkpt lat="45.81074" lon="-1.03087">
        <ele>3</ele>
        <time>2021-08-18T17:05:08+02:00</time>
      </trkpt>
      <trkpt lat="45.81071" lon="-1.0312">
        <ele>3</ele>
        <time>2021-08-18T17:05:23+02:00</time>
      </trkpt>
      <trkpt lat="45.81053" lon="-1.03142">
        <ele>3</ele>
        <time>2021-08-18T17:05:41+02:00</time>
      </trkpt>
      <trkpt lat="45.81031" lon="-1.03154">
        <ele>3</ele>
        <time>2021-08-18T17:05:59+02:00</time>
      </trkpt>
      <trkpt lat="45.81009" lon="-1.03165">
        <ele>3</ele>
        <time>2021-08-18T17:06:16+02:00</time>
      </trkpt>
      <trkpt lat="45.80989" lon="-1.03182">
        <ele>3</ele>
        <time>2021-08-18T17:06:32+02:00</time>
      </trkpt>
      <trkpt lat="45.80967" lon="-1.03193">
        <ele>3</ele>
        <time>2021-08-18T17:06:50+02:00</time>
      </trkpt>
      <trkpt lat="45.80956" lon="-1.03222">
        <ele>3</ele>
        <time>2021-08-18T17:07:07+02:00</time>
      </trkpt>
      <trkpt lat="45.80939" lon="-1.03244">
        <ele>3</ele>
        <time>2021-08-18T17:07:25+02:00</time>
      </trkpt>
      <trkpt lat="45.80927" lon="-1.03272">
        <ele>3</ele>
        <time>2021-08-18T17:07:41+02:00</time>
      </trkpt>
      <trkpt lat="45.80917" lon="-1.03301">
        <ele>3</ele>
        <time>2021-08-18T17:08:06+02:00</time>
      </trkpt>
      <trkpt lat="45.80919" lon="-1.03333">
        <ele>3</ele>
        <time>2021-08-18T17:08:21+02:00</time>
      </trkpt>
      <trkpt lat="45.80921" lon="-1.03366">
        <ele>3</ele>
        <time>2021-08-18T17:08:36+02:00</time>
      </trkpt>
      <trkpt lat="45.80917" lon="-1.03399">
        <ele>3</ele>
        <time>2021-08-18T17:08:53+02:00</time>
      </trkpt>
      <trkpt lat="45.80909" lon="-1.03429">
        <ele>3</ele>
        <time>2021-08-18T17:09:09+02:00</time>
      </trkpt>
      <trkpt lat="45.80898" lon="-1.03458">
        <ele>3</ele>
        <time>2021-08-18T17:09:26+02:00</time>
      </trkpt>
      <trkpt lat="45.80882" lon="-1.0348">
        <ele>4</ele>
        <time>2021-08-18T17:09:44+02:00</time>
      </trkpt>
      <trkpt lat="45.80863" lon="-1.03499">
        <ele>4</ele>
        <time>2021-08-18T17:10:18+02:00</time>
      </trkpt>
      <trkpt lat="45.80858" lon="-1.0353">
        <ele>3</ele>
        <time>2021-08-18T17:10:37+02:00</time>
      </trkpt>
      <trkpt lat="45.8085" lon="-1.03561">
        <ele>3</ele>
        <time>2021-08-18T17:10:52+02:00</time>
      </trkpt>
      <trkpt lat="45.80838" lon="-1.03589">
        <ele>3</ele>
        <time>2021-08-18T17:11:10+02:00</time>
      </trkpt>
      <trkpt lat="45.80825" lon="-1.03617">
        <ele>3</ele>
        <time>2021-08-18T17:11:26+02:00</time>
      </trkpt>
      <trkpt lat="45.8081" lon="-1.03642">
        <ele>3</ele>
        <time>2021-08-18T17:11:42+02:00</time>
      </trkpt>
      <trkpt lat="45.80797" lon="-1.03668">
        <ele>3</ele>
        <time>2021-08-18T17:11:58+02:00</time>
      </trkpt>
      <trkpt lat="45.8079" lon="-1.03701">
        <ele>3</ele>
        <time>2021-08-18T17:12:14+02:00</time>
      </trkpt>
      <trkpt lat="45.80778" lon="-1.03728">
        <ele>3</ele>
        <time>2021-08-18T17:12:34+02:00</time>
      </trkpt>
      <trkpt lat="45.80769" lon="-1.03758">
        <ele>3</ele>
        <time>2021-08-18T17:12:52+02:00</time>
      </trkpt>
      <trkpt lat="45.80759" lon="-1.03789">
        <ele>3</ele>
        <time>2021-08-18T17:13:08+02:00</time>
      </trkpt>
      <trkpt lat="45.80739" lon="-1.03805">
        <ele>3</ele>
        <time>2021-08-18T17:13:25+02:00</time>
      </trkpt>
      <trkpt lat="45.80716" lon="-1.03808">
        <ele>3</ele>
        <time>2021-08-18T17:13:41+02:00</time>
      </trkpt>
      <trkpt lat="45.80698" lon="-1.03819">
        <ele>2</ele>
        <time>2021-08-18T17:14:00+02:00</time>
      </trkpt>
      <trkpt lat="45.80679" lon="-1.03838">
        <ele>2</ele>
        <time>2021-08-18T17:14:16+02:00</time>
      </trkpt>
      <trkpt lat="45.80656" lon="-1.03857">
        <ele>3</ele>
        <time>2021-08-18T17:14:30+02:00</time>
      </trkpt>
      <trkpt lat="45.80636" lon="-1.03876">
        <ele>3</ele>
        <time>2021-08-18T17:14:50+02:00</time>
      </trkpt>
      <trkpt lat="45.80618" lon="-1.03898">
        <ele>4</ele>
        <time>2021-08-18T17:15:07+02:00</time>
      </trkpt>
      <trkpt lat="45.806" lon="-1.03913">
        <ele>7</ele>
        <time>2021-08-18T17:15:27+02:00</time>
      </trkpt>
      <trkpt lat="45.80579" lon="-1.03932">
        <ele>9</ele>
        <time>2021-08-18T17:15:45+02:00</time>
      </trkpt>
      <trkpt lat="45.80559" lon="-1.03952">
        <ele>8</ele>
        <time>2021-08-18T17:16:05+02:00</time>
      </trkpt>
      <trkpt lat="45.8054" lon="-1.03966">
        <ele>12</ele>
        <time>2021-08-18T17:16:24+02:00</time>
      </trkpt>
      <trkpt lat="45.80522" lon="-1.03981">
        <ele>13</ele>
        <time>2021-08-18T17:16:40+02:00</time>
      </trkpt>
      <trkpt lat="45.80502" lon="-1.03999">
        <ele>14</ele>
        <time>2021-08-18T17:17:23+02:00</time>
      </trkpt>
      <trkpt lat="45.80481" lon="-1.0398">
        <ele>15</ele>
        <time>2021-08-18T17:17:54+02:00</time>
      </trkpt>
      <trkpt lat="45.80459" lon="-1.03988">
        <ele>15</ele>
        <time>2021-08-18T17:18:10+02:00</time>
      </trkpt>
      <trkpt lat="45.80439" lon="-1.04005">
        <ele>15</ele>
        <time>2021-08-18T17:18:26+02:00</time>
      </trkpt>
      <trkpt lat="45.80419" lon="-1.0402">
        <ele>15</ele>
        <time>2021-08-18T17:18:45+02:00</time>
      </trkpt>
      <trkpt lat="45.80398" lon="-1.04037">
        <ele>15</ele>
        <time>2021-08-18T17:19:03+02:00</time>
      </trkpt>
      <trkpt lat="45.80389" lon="-1.04049">
        <ele>12</ele>
        <time>2021-10-15T08:35:52+02:00</time>
      </trkpt>
      <trkpt lat="45.80375" lon="-1.04031">
        <ele>15</ele>
        <time>2021-08-18T17:19:30+02:00</time>
      </trkpt>
      <trkpt lat="45.80356" lon="-1.04012">
        <ele>15</ele>
        <time>2021-08-18T17:19:51+02:00</time>
      </trkpt>
      <trkpt lat="45.80335" lon="-1.04002">
        <ele>15</ele>
        <time>2021-08-18T17:20:10+02:00</time>
      </trkpt>
      <trkpt lat="45.80313" lon="-1.03989">
        <ele>15</ele>
        <time>2021-08-18T17:20:27+02:00</time>
      </trkpt>
      <trkpt lat="45.80293" lon="-1.03971">
        <ele>15</ele>
        <time>2021-08-18T17:20:44+02:00</time>
      </trkpt>
      <trkpt lat="45.80272" lon="-1.03957">
        <ele>15</ele>
        <time>2021-08-18T17:21:01+02:00</time>
      </trkpt>
      <trkpt lat="45.80242" lon="-1.03952">
        <ele>15</ele>
        <time>2021-10-15T08:36:27+02:00</time>
      </trkpt>
      <trkpt lat="45.80224" lon="-1.03957">
        <ele>15</ele>
        <time>2021-10-15T08:36:32+02:00</time>
      </trkpt>
      <trkpt lat="45.80221" lon="-1.03989">
        <ele>15</ele>
        <time>2021-10-15T08:36:37+02:00</time>
      </trkpt>
      <trkpt lat="45.80202" lon="-1.04059">
        <ele>14</ele>
        <time>2021-10-15T08:36:42+02:00</time>
      </trkpt>
      <trkpt lat="45.80215" lon="-1.04089">
        <ele>14</ele>
        <time>2021-08-18T17:21:20+02:00</time>
      </trkpt>
    </trkseg>
  </trk>
</gpx>